createdAt,value
2023-02-17T00:00:11.366Z,93.83
2023-02-17T00:01:35.072Z,93.95
2023-02-17T00:02:34.671Z,94.53
2023-02-17T00:03:31.512Z,94.31
2023-02-17T00:04:32.344Z,93.83
2023-02-17T00:05:34.889Z,95.02
2023-02-17T00:06:32.434Z,95.34
2023-02-17T00:07:33.860Z,93.80
2023-02-17T00:08:33.076Z,95.99
2023-02-17T00:09:29.900Z,95.23
2023-02-17T00:10:29.416Z,94.16
2023-02-17T00:11:30.189Z,93.24
2023-02-17T00:12:27.320Z,92.59
2023-02-17T00:13:24.423Z,90.94
2023-02-17T00:14:21.190Z,88.75
2023-02-17T00:15:17.917Z,87.91
2023-02-17T00:16:26.886Z,87.54
2023-02-17T00:17:25.762Z,87.35
2023-02-17T00:18:22.945Z,87.13
2023-02-17T00:19:29.798Z,86.84
2023-02-17T00:20:31.469Z,86.22
2023-02-17T00:21:31.181Z,85.53
2023-02-17T00:22:28.047Z,85.06
2023-02-17T00:23:27.161Z,85.47
2023-02-17T00:24:25.581Z,86.52
2023-02-17T00:25:22.366Z,87.72
2023-02-17T00:26:23.371Z,88.10
2023-02-17T00:27:20.188Z,88.65
2023-02-17T00:28:17.038Z,89.76
2023-02-17T00:29:14.563Z,89.17
2023-02-17T00:30:11.583Z,88.49
2023-02-17T00:31:11.692Z,88.73
2023-02-17T00:32:10.574Z,89.59
2023-02-17T00:33:07.414Z,91.34
2023-02-17T00:34:04.304Z,93.29
2023-02-17T00:35:01.027Z,92.94
2023-02-17T00:35:57.791Z,93.04
2023-02-17T00:36:57.010Z,91.89
2023-02-17T00:37:53.782Z,93.01
2023-02-17T00:38:52.788Z,91.86
2023-02-17T00:39:49.572Z,90.37
2023-02-17T00:40:48.869Z,90.33
2023-02-17T00:41:45.662Z,91.00
2023-02-17T00:42:45.402Z,90.02
2023-02-17T00:43:44.179Z,91.28
2023-02-17T00:44:40.926Z,92.37
2023-02-17T00:45:39.712Z,93.01
2023-02-17T00:46:36.596Z,93.28
2023-02-17T00:47:36.348Z,93.71
2023-02-17T00:48:33.483Z,93.06
2023-02-17T00:49:32.975Z,92.41
2023-02-17T00:50:31.643Z,90.96
2023-02-17T00:51:28.425Z,89.94
2023-02-17T00:52:25.148Z,88.44
2023-02-17T00:53:25.257Z,86.38
2023-02-17T00:54:24.781Z,85.61
2023-02-17T00:55:22.972Z,84.58
2023-02-17T00:56:19.702Z,84.04
2023-02-17T00:57:16.594Z,84.51
2023-02-17T00:58:16.071Z,85.13
2023-02-17T00:59:15.521Z,86.66
2023-02-17T01:00:15.236Z,85.95
2023-02-17T01:01:12.425Z,85.88
2023-02-17T01:02:09.288Z,85.40
2023-02-17T01:03:06.449Z,85.04
2023-02-17T01:04:05.804Z,84.45
2023-02-17T01:05:02.585Z,85.19
2023-02-17T01:06:01.924Z,85.54
2023-02-17T01:06:58.744Z,86.10
2023-02-17T01:07:59.292Z,85.62
2023-02-17T01:08:56.190Z,86.24
2023-02-17T01:09:52.941Z,87.73
2023-02-17T01:10:50.564Z,88.98
2023-02-17T01:11:47.514Z,90.73
2023-02-17T01:12:44.322Z,91.24
2023-02-17T01:13:41.098Z,91.82
2023-02-17T01:14:39.275Z,92.12
2023-02-17T01:15:44.756Z,91.81
2023-02-17T01:16:50.989Z,91.13
2023-02-17T01:17:47.691Z,90.12
2023-02-17T01:18:46.926Z,89.00
2023-02-17T01:19:43.767Z,88.77
2023-02-17T01:20:44.538Z,90.05
2023-02-17T01:21:47.474Z,90.43
2023-02-17T01:22:44.258Z,90.13
2023-02-17T01:23:42.206Z,90.27
2023-02-17T01:24:40.323Z,89.70
2023-02-17T01:25:49.032Z,89.42
2023-02-17T01:26:45.871Z,90.40
2023-02-17T01:27:45.361Z,90.62
2023-02-17T01:28:44.241Z,92.28
2023-02-17T01:29:48.867Z,93.06
2023-02-17T01:30:49.335Z,91.78
2023-02-17T01:31:46.374Z,91.48
2023-02-17T01:32:43.166Z,90.73
2023-02-17T01:33:42.396Z,90.65
2023-02-17T01:34:39.235Z,91.87
2023-02-17T01:35:36.067Z,92.16
2023-02-17T01:36:33.367Z,92.80
2023-02-17T01:37:33.344Z,93.44
2023-02-17T01:38:30.344Z,92.89
2023-02-17T01:39:27.143Z,93.71
2023-02-17T01:40:23.996Z,94.47
2023-02-17T01:41:23.846Z,94.58
2023-02-17T01:42:20.864Z,95.00
2023-02-17T01:43:18.163Z,95.19
2023-02-17T01:44:22.072Z,95.79
2023-02-17T01:45:18.726Z,96.88
2023-02-17T01:46:15.581Z,98.86
2023-02-17T01:47:13.173Z,99.56
2023-02-17T01:48:18.170Z,98.61
2023-02-17T01:49:17.685Z,97.72
2023-02-17T01:50:16.594Z,98.20
2023-02-17T01:51:19.018Z,96.70
2023-02-17T01:52:24.790Z,94.10
2023-02-17T01:53:35.393Z,94.57
2023-02-17T01:54:42.739Z,93.66
2023-02-17T01:55:42.176Z,91.36
2023-02-17T01:56:42.916Z,91.96
2023-02-17T01:57:44.755Z,93.99
2023-02-17T01:58:47.013Z,94.49
2023-02-17T01:59:45.902Z,94.24
2023-02-17T02:00:43.426Z,94.34
2023-02-17T02:01:40.623Z,94.06
2023-02-17T02:02:39.036Z,94.98
2023-02-17T02:03:39.025Z,95.06
2023-02-17T02:04:40.745Z,95.24
2023-02-17T02:05:40.412Z,96.05
2023-02-17T02:06:43.861Z,97.52
2023-02-17T02:07:43.985Z,96.71
2023-02-17T02:09:34.941Z,95.80
2023-02-17T02:10:31.739Z,95.04
2023-02-17T02:11:28.517Z,95.32
2023-02-17T02:12:29.202Z,94.43
2023-02-17T02:13:26.000Z,94.04
2023-02-17T02:14:23.727Z,93.47
2023-02-17T02:15:25.852Z,93.63
2023-02-17T02:16:53.163Z,92.75
2023-02-17T02:17:55.823Z,90.92
2023-02-17T02:19:31.055Z,90.31
2023-02-17T02:21:04.654Z,89.03
2023-02-17T02:22:31.405Z,88.54
2023-02-17T02:23:46.933Z,88.11
2023-02-17T02:25:09.544Z,87.45
2023-02-17T02:26:41.167Z,86.79
2023-02-17T02:28:05.289Z,87.22
2023-02-17T02:29:39.189Z,86.93
2023-02-17T02:30:56.746Z,86.55
2023-02-17T02:32:18.136Z,86.57
2023-02-17T02:33:39.134Z,85.75
2023-02-17T02:34:49.878Z,86.30
2023-02-17T02:36:03.717Z,86.19
2023-02-17T02:37:17.181Z,86.05
2023-02-17T02:38:40.557Z,84.87
2023-02-17T02:39:46.688Z,83.33
2023-02-17T02:40:51.608Z,84.03
2023-02-17T02:41:48.290Z,83.21
2023-02-17T02:42:46.234Z,83.18
2023-02-17T02:43:45.071Z,83.42
2023-02-17T02:44:42.115Z,82.78
2023-02-17T02:45:39.194Z,82.37
2023-02-17T02:46:36.565Z,81.62
2023-02-17T02:47:53.518Z,81.32
2023-02-17T02:48:51.832Z,80.18
2023-02-17T02:49:48.647Z,79.68
2023-02-17T02:51:19.333Z,80.99
2023-02-17T02:53:04.252Z,80.30
2023-02-17T02:54:18.125Z,78.64
2023-02-17T02:55:29.816Z,77.79
2023-02-17T02:57:03.711Z,77.16
2023-02-17T02:58:47.589Z,76.03
2023-02-17T02:59:53.953Z,76.94
2023-02-17T03:00:54.177Z,78.90
2023-02-17T03:02:05.832Z,80.57
2023-02-17T03:03:17.115Z,82.14
2023-02-17T03:04:31.854Z,84.75
2023-02-17T03:05:37.125Z,85.89
2023-02-17T03:07:08.892Z,86.64
2023-02-17T03:08:15.879Z,85.62
2023-02-17T03:09:24.668Z,85.76
2023-02-17T03:10:22.199Z,84.61
2023-02-17T03:11:32.389Z,83.75
2023-02-17T03:12:30.879Z,82.75
2023-02-17T03:13:27.838Z,82.71
2023-02-17T03:14:26.593Z,82.79
2023-02-17T03:15:33.784Z,81.00
2023-02-17T03:16:32.831Z,80.58
2023-02-17T03:17:33.310Z,79.64
2023-02-17T03:18:32.900Z,79.61
2023-02-17T03:19:29.706Z,79.49
2023-02-17T03:20:30.160Z,78.79
2023-02-17T03:21:37.841Z,78.70
2023-02-17T03:22:42.008Z,78.71
2023-02-17T03:23:38.801Z,77.55
2023-02-17T03:24:36.207Z,77.72
2023-02-17T03:25:33.087Z,77.58
2023-02-17T03:26:30.053Z,76.70
2023-02-17T03:27:27.850Z,76.57
2023-02-17T03:28:24.896Z,76.88
2023-02-17T03:29:21.693Z,75.54
2023-02-17T03:30:18.900Z,75.24
2023-02-17T03:31:16.070Z,76.06
2023-02-17T03:32:13.105Z,76.32
2023-02-17T03:33:22.503Z,77.06
2023-02-17T03:34:21.489Z,76.80
2023-02-17T03:35:26.646Z,76.67
2023-02-17T03:36:23.575Z,77.82
2023-02-17T03:37:20.588Z,79.72
2023-02-17T03:38:17.333Z,81.31
2023-02-17T03:39:14.165Z,82.48
2023-02-17T03:40:11.398Z,82.49
2023-02-17T03:41:08.502Z,80.86
2023-02-17T03:42:05.417Z,81.76
2023-02-17T03:43:02.161Z,80.76
2023-02-17T03:43:59.023Z,79.88
2023-02-17T03:44:55.747Z,80.04
2023-02-17T03:45:52.733Z,79.27
2023-02-17T03:46:49.594Z,78.92
2023-02-17T03:47:46.419Z,78.69
2023-02-17T03:48:43.502Z,79.04
2023-02-17T03:49:40.251Z,79.43
2023-02-17T03:50:37.022Z,79.71
2023-02-17T03:51:33.856Z,80.65
2023-02-17T03:52:30.747Z,81.85
2023-02-17T03:53:27.532Z,82.37
2023-02-17T03:54:24.290Z,85.18
2023-02-17T03:55:21.068Z,86.93
2023-02-17T03:56:19.658Z,87.77
2023-02-17T03:57:16.390Z,86.92
2023-02-17T03:58:13.300Z,85.80
2023-02-17T03:59:10.176Z,84.68
2023-02-17T04:00:07.783Z,83.40
2023-02-17T04:01:09.212Z,84.49
2023-02-17T04:02:05.981Z,84.02
2023-02-17T04:03:02.759Z,85.21
2023-02-17T04:03:59.606Z,87.56
2023-02-17T04:04:56.366Z,87.95
2023-02-17T04:05:54.621Z,89.21
2023-02-17T04:06:51.424Z,89.53
2023-02-17T04:07:48.164Z,91.05
2023-02-17T04:08:44.915Z,90.73
2023-02-17T04:09:41.682Z,90.97
2023-02-17T04:10:38.422Z,90.65
2023-02-17T04:11:35.220Z,89.89
2023-02-17T04:12:31.999Z,89.83
2023-02-17T04:13:29.124Z,90.68
2023-02-17T04:14:25.964Z,90.31
2023-02-17T04:15:22.787Z,90.87
2023-02-17T04:16:19.623Z,89.93
2023-02-17T04:17:16.352Z,91.17
2023-02-17T04:18:13.524Z,90.74
2023-02-17T04:19:10.342Z,91.33
2023-02-17T04:20:08.301Z,90.36
2023-02-17T04:21:05.914Z,90.00
2023-02-17T04:22:02.770Z,89.17
2023-02-17T04:23:00.922Z,89.14
2023-02-17T04:24:02.214Z,88.51
2023-02-17T04:24:59.037Z,88.39
2023-02-17T04:25:55.883Z,90.75
2023-02-17T04:26:52.891Z,91.00
2023-02-17T04:27:49.630Z,92.90
2023-02-17T04:28:46.386Z,93.81
2023-02-17T04:29:43.268Z,94.52
2023-02-17T04:30:43.790Z,95.93
2023-02-17T04:31:40.721Z,96.99
2023-02-17T04:32:37.527Z,97.17
2023-02-17T04:33:34.641Z,97.86
2023-02-17T04:34:31.517Z,98.77
2023-02-17T04:35:28.521Z,98.20
2023-02-17T04:36:25.406Z,97.38
2023-02-17T04:37:22.249Z,95.79
2023-02-17T04:38:19.244Z,94.80
2023-02-17T04:39:16.121Z,93.93
2023-02-17T04:40:13.359Z,94.03
2023-02-17T04:41:10.214Z,92.94
2023-02-17T04:42:06.984Z,91.83
2023-02-17T04:43:04.325Z,90.79
2023-02-17T04:44:01.078Z,90.00
2023-02-17T04:44:57.820Z,89.36
2023-02-17T04:45:54.913Z,89.45
2023-02-17T04:46:51.813Z,88.87
2023-02-17T04:47:51.537Z,88.78
2023-02-17T04:48:48.279Z,88.27
2023-02-17T04:49:45.031Z,86.88
2023-02-17T04:50:41.883Z,86.22
2023-02-17T04:51:38.726Z,85.86
2023-02-17T04:52:37.108Z,84.66
2023-02-17T04:53:33.880Z,84.20
2023-02-17T04:54:30.685Z,84.83
2023-02-17T04:55:27.692Z,84.43
2023-02-17T04:56:24.430Z,84.84
2023-02-17T04:57:21.310Z,84.20
2023-02-17T04:58:18.267Z,84.02
2023-02-17T04:59:15.024Z,83.64
2023-02-17T05:00:12.460Z,84.83
2023-02-17T05:01:09.422Z,84.70
2023-02-17T05:02:06.255Z,84.67
2023-02-17T05:03:03.347Z,84.47
2023-02-17T05:04:00.113Z,83.58
2023-02-17T05:04:56.986Z,84.14
2023-02-17T05:05:53.785Z,83.94
2023-02-17T05:06:50.586Z,84.70
2023-02-17T05:07:47.615Z,86.07
2023-02-17T05:08:44.370Z,86.19
2023-02-17T05:09:41.188Z,86.74
2023-02-17T05:10:37.980Z,87.51
2023-02-17T05:11:34.783Z,87.67
2023-02-17T05:12:31.592Z,87.19
2023-02-17T05:13:28.444Z,87.35
2023-02-17T05:14:25.440Z,86.27
2023-02-17T05:15:22.314Z,86.01
2023-02-17T05:16:19.161Z,85.01
2023-02-17T05:17:16.071Z,82.80
2023-02-17T05:18:14.098Z,82.49
2023-02-17T05:19:11.135Z,83.08
2023-02-17T05:20:09.213Z,84.49
2023-02-17T05:21:06.092Z,85.31
2023-02-17T05:22:03.104Z,85.36
2023-02-17T05:22:59.921Z,86.98
2023-02-17T05:23:56.751Z,87.95
2023-02-17T05:24:54.242Z,87.85
2023-02-17T05:25:51.003Z,87.36
2023-02-17T05:26:48.027Z,86.50
2023-02-17T05:27:44.831Z,85.76
2023-02-17T05:28:41.668Z,85.68
2023-02-17T05:29:38.428Z,85.67
2023-02-17T05:30:35.252Z,86.73
2023-02-17T05:31:32.025Z,86.48
2023-02-17T05:32:29.082Z,88.10
2023-02-17T05:33:25.834Z,89.55
2023-02-17T05:34:22.689Z,90.01
2023-02-17T05:35:19.624Z,91.35
2023-02-17T05:36:16.542Z,92.00
2023-02-17T05:37:13.271Z,92.93
2023-02-17T05:38:10.073Z,93.64
2023-02-17T05:39:09.009Z,94.42
2023-02-17T05:40:09.412Z,94.69
2023-02-17T05:41:06.290Z,94.20
2023-02-17T05:42:03.248Z,94.54
2023-02-17T05:43:00.230Z,94.60
2023-02-17T05:43:57.051Z,93.40
2023-02-17T05:44:53.759Z,93.51
2023-02-17T05:45:50.590Z,91.64
2023-02-17T05:46:47.370Z,91.76
2023-02-17T05:47:44.226Z,92.06
2023-02-17T05:48:41.356Z,92.34
2023-02-17T05:49:38.176Z,93.49
2023-02-17T05:50:34.950Z,94.32
2023-02-17T05:51:31.856Z,94.89
2023-02-17T05:52:28.601Z,94.07
2023-02-17T05:53:26.188Z,93.93
2023-02-17T05:54:23.102Z,94.40
2023-02-17T05:55:20.006Z,94.17
2023-02-17T05:56:16.869Z,94.15
2023-02-17T05:57:13.682Z,93.25
2023-02-17T05:58:10.483Z,92.89
2023-02-17T05:59:07.323Z,92.66
2023-02-17T06:00:05.464Z,91.28
2023-02-17T06:01:02.323Z,91.11
2023-02-17T06:01:59.282Z,89.27
2023-02-17T06:02:56.100Z,88.53
2023-02-17T06:03:52.897Z,86.26
2023-02-17T06:04:49.838Z,85.85
2023-02-17T06:05:46.964Z,84.86
2023-02-17T06:06:43.675Z,83.93
2023-02-17T06:07:41.441Z,83.04
2023-02-17T06:08:38.572Z,81.67
2023-02-17T06:09:35.435Z,80.77
2023-02-17T06:10:32.674Z,80.30
2023-02-17T06:11:29.644Z,79.42
2023-02-17T06:12:26.602Z,79.23
2023-02-17T06:13:23.431Z,78.52
2023-02-17T06:14:20.242Z,77.54
2023-02-17T06:15:17.254Z,77.50
2023-02-17T06:16:14.124Z,77.69
2023-02-17T06:17:11.050Z,77.88
2023-02-17T06:18:07.803Z,76.53
2023-02-17T06:19:05.397Z,77.36
2023-02-17T06:20:02.239Z,77.12
2023-02-17T06:20:59.743Z,76.85
2023-02-17T06:21:59.238Z,76.34
2023-02-17T06:22:56.044Z,76.43
2023-02-17T06:23:52.840Z,76.62
2023-02-17T06:24:49.659Z,77.10
2023-02-17T06:25:46.484Z,77.39
2023-02-17T06:26:43.297Z,77.85
2023-02-17T06:27:40.212Z,78.48
2023-02-17T06:28:36.937Z,78.88
2023-02-17T06:29:33.848Z,79.39
2023-02-17T06:30:30.916Z,78.66
2023-02-17T06:31:27.917Z,79.04
2023-02-17T06:32:24.744Z,78.42
2023-02-17T06:33:21.712Z,78.68
2023-02-17T06:34:18.571Z,78.25
2023-02-17T06:35:15.461Z,78.56
2023-02-17T06:36:12.332Z,77.62
2023-02-17T06:37:09.081Z,78.04
2023-02-17T06:38:05.987Z,76.49
2023-02-17T06:39:03.483Z,76.93
2023-02-17T06:40:00.399Z,77.01
2023-02-17T06:41:02.242Z,75.89
2023-02-17T06:41:59.181Z,76.68
2023-02-17T06:42:55.922Z,76.13
2023-02-17T06:43:52.687Z,77.20
2023-02-17T06:44:49.532Z,77.33
2023-02-17T06:45:46.736Z,76.51
2023-02-17T06:46:46.041Z,76.77
2023-02-17T06:47:45.089Z,75.91
2023-02-17T06:48:41.891Z,75.79
2023-02-17T06:49:40.667Z,75.44
2023-02-17T06:50:38.184Z,75.75
2023-02-17T06:51:35.100Z,74.87
2023-02-17T06:52:31.887Z,74.57
2023-02-17T06:53:28.682Z,74.85
2023-02-17T06:54:25.571Z,74.63
2023-02-17T06:55:22.362Z,73.50
2023-02-17T06:56:21.100Z,73.80
2023-02-17T06:57:19.073Z,74.07
2023-02-17T06:58:15.781Z,73.63
2023-02-17T06:59:12.578Z,73.21
2023-02-17T07:00:09.687Z,72.81
2023-02-17T07:01:08.190Z,73.65
2023-02-17T07:02:05.270Z,72.11
2023-02-17T07:03:02.209Z,71.65
2023-02-17T07:03:59.125Z,72.37
2023-02-17T07:04:55.903Z,72.14
2023-02-17T07:05:58.297Z,71.61
2023-02-17T07:06:55.023Z,70.36
2023-02-17T07:07:53.570Z,71.16
2023-02-17T07:08:50.805Z,70.30
2023-02-17T07:09:47.528Z,70.99
2023-02-17T07:10:44.373Z,70.49
2023-02-17T07:11:42.914Z,69.75
2023-02-17T07:12:39.973Z,69.24
2023-02-17T07:13:37.966Z,68.80
2023-02-17T07:14:35.817Z,69.32
2023-02-17T07:15:32.589Z,69.65
2023-02-17T07:16:29.402Z,68.65
2023-02-17T07:17:26.657Z,68.63
2023-02-17T07:18:23.498Z,67.89
2023-02-17T07:19:20.332Z,67.78
2023-02-17T07:20:17.547Z,66.73
2023-02-17T07:21:14.723Z,66.12
2023-02-17T07:22:11.472Z,65.84
2023-02-17T07:23:08.382Z,66.31
2023-02-17T07:24:05.424Z,66.01
2023-02-17T07:25:02.206Z,64.85
2023-02-17T07:26:04.932Z,64.62
2023-02-17T07:27:02.122Z,64.23
2023-02-17T07:27:59.899Z,63.59
2023-02-17T07:28:56.869Z,63.22
2023-02-17T07:29:53.787Z,62.19
2023-02-17T07:30:50.614Z,62.15
2023-02-17T07:31:47.420Z,61.91
2023-02-17T07:32:45.002Z,62.31
2023-02-17T07:33:43.263Z,61.30
2023-02-17T07:34:40.066Z,61.18
2023-02-17T07:35:46.088Z,61.13
2023-02-17T07:36:42.892Z,61.23
2023-02-17T07:37:39.751Z,61.06
2023-02-17T07:38:37.881Z,60.14
2023-02-17T07:39:34.828Z,60.38
2023-02-17T07:40:31.665Z,60.29
2023-02-17T07:41:28.785Z,59.60
2023-02-17T07:42:27.873Z,59.48
2023-02-17T07:43:24.651Z,58.77
2023-02-17T07:44:21.433Z,58.32
2023-02-17T07:45:18.341Z,57.95
2023-02-17T07:46:15.458Z,58.28
2023-02-17T07:47:12.367Z,57.70
2023-02-17T07:48:09.137Z,57.28
2023-02-17T07:49:06.137Z,57.24
2023-02-17T07:50:03.078Z,56.43
2023-02-17T07:51:10.605Z,57.14
2023-02-17T07:52:07.396Z,57.19
2023-02-17T07:53:04.569Z,56.90
2023-02-17T07:54:02.062Z,57.48
2023-02-17T07:54:58.840Z,56.44
2023-02-17T07:55:55.715Z,56.36
2023-02-17T07:56:52.554Z,56.91
2023-02-17T07:57:49.556Z,56.15
2023-02-17T07:58:46.287Z,56.46
2023-02-17T07:59:43.719Z,56.17
2023-02-17T08:00:40.723Z,55.67
2023-02-17T08:01:38.397Z,56.23
2023-02-17T08:02:35.198Z,55.55
2023-02-17T08:03:32.005Z,55.29
2023-02-17T08:04:29.097Z,54.86
2023-02-17T08:05:26.020Z,54.84
2023-02-17T08:06:24.986Z,54.48
2023-02-17T08:07:21.874Z,53.47
2023-02-17T08:08:38.558Z,53.79
2023-02-17T08:09:53.873Z,53.65
2023-02-17T08:11:09.312Z,51.94
2023-02-17T08:12:25.261Z,50.93
2023-02-17T08:13:22.343Z,50.36
2023-02-17T08:14:21.998Z,49.80
2023-02-17T08:15:18.832Z,48.68
2023-02-17T08:16:15.682Z,47.93
2023-02-17T08:17:12.491Z,47.71
2023-02-17T08:18:09.414Z,47.68
2023-02-17T08:19:07.628Z,46.88
2023-02-17T08:20:09.149Z,45.99
2023-02-17T08:21:06.384Z,45.72
2023-02-17T08:22:03.787Z,45.88
2023-02-17T08:23:01.175Z,45.84
2023-02-17T08:23:57.938Z,45.08
2023-02-17T08:24:54.903Z,45.28
2023-02-17T08:25:51.732Z,44.98
2023-02-17T08:26:51.505Z,45.50
2023-02-17T08:27:48.417Z,44.60
2023-02-17T08:28:45.777Z,45.17
2023-02-17T08:29:43.082Z,45.06
2023-02-17T08:30:40.314Z,45.01
2023-02-17T08:31:38.063Z,45.08
2023-02-17T08:32:34.884Z,44.84
2023-02-17T08:33:31.787Z,44.12
2023-02-17T08:34:28.773Z,44.53
2023-02-17T08:35:26.021Z,44.98
2023-02-17T08:36:24.784Z,44.54
2023-02-17T08:37:21.650Z,44.38
2023-02-17T08:38:18.416Z,43.88
2023-02-17T08:39:17.976Z,43.27
2023-02-17T08:40:15.560Z,42.73
2023-02-17T08:41:21.342Z,42.88
2023-02-17T08:42:18.122Z,42.71
2023-02-17T08:43:15.194Z,42.15
2023-02-17T08:44:18.696Z,41.92
2023-02-17T08:45:16.697Z,43.13
2023-02-17T08:46:14.514Z,42.97
2023-02-17T08:47:11.683Z,42.95
2023-02-17T08:48:08.582Z,42.41
2023-02-17T08:49:06.847Z,42.12
2023-02-17T08:50:06.806Z,42.35
2023-02-17T08:51:05.383Z,41.57
2023-02-17T08:52:03.221Z,41.77
2023-02-17T08:53:00.125Z,41.76
2023-02-17T08:54:00.653Z,42.21
2023-02-17T08:54:57.493Z,42.11
2023-02-17T08:55:54.266Z,41.93
2023-02-17T08:56:51.130Z,41.79
2023-02-17T08:57:47.973Z,41.79
2023-02-17T08:58:44.774Z,41.69
2023-02-17T08:59:41.628Z,40.99
2023-02-17T09:00:38.581Z,40.44
2023-02-17T09:01:36.539Z,40.86
2023-02-17T09:02:33.348Z,41.20
2023-02-17T09:03:30.251Z,40.75
2023-02-17T09:04:27.271Z,40.41
2023-02-17T09:05:24.133Z,41.04
2023-02-17T09:06:21.505Z,40.08
2023-02-17T09:07:18.406Z,40.89
2023-02-17T09:08:15.415Z,41.01
2023-02-17T09:09:15.665Z,40.59
2023-02-17T09:10:13.403Z,40.66
2023-02-17T09:11:12.651Z,41.32
2023-02-17T09:12:09.477Z,41.12
2023-02-17T09:13:06.407Z,41.12
2023-02-17T09:14:04.018Z,40.99
2023-02-17T09:15:01.126Z,40.78
2023-02-17T09:15:58.846Z,39.86
2023-02-17T09:16:56.402Z,39.45
2023-02-17T09:17:54.576Z,39.25
2023-02-17T09:18:52.837Z,39.36
2023-02-17T09:19:49.677Z,40.06
2023-02-17T09:20:50.262Z,39.96
2023-02-17T09:21:48.464Z,39.67
2023-02-17T09:22:45.342Z,39.30
2023-02-17T09:23:42.390Z,38.94
2023-02-17T09:24:40.161Z,39.32
2023-02-17T09:25:37.150Z,39.50
2023-02-17T09:26:35.208Z,39.36
2023-02-17T09:27:32.386Z,39.04
2023-02-17T09:28:29.169Z,39.83
2023-02-17T09:29:26.085Z,39.43
2023-02-17T09:30:23.118Z,39.80
2023-02-17T09:31:23.028Z,39.62
2023-02-17T09:32:20.303Z,39.46
2023-02-17T09:33:17.200Z,39.25
2023-02-17T09:34:14.539Z,39.46
2023-02-17T09:35:12.899Z,38.89
2023-02-17T09:36:14.235Z,39.45
2023-02-17T09:37:12.576Z,38.72
2023-02-17T09:38:10.359Z,39.76
2023-02-17T09:39:07.545Z,39.16
2023-02-17T09:40:06.486Z,39.05
2023-02-17T09:41:21.826Z,39.11
2023-02-17T09:42:23.111Z,39.44
2023-02-17T09:43:28.933Z,39.30
2023-02-17T09:44:35.229Z,39.42
2023-02-17T09:45:36.358Z,39.68
2023-02-17T09:46:59.389Z,39.52
2023-02-17T09:48:08.813Z,39.46
2023-02-17T09:49:19.531Z,38.96
2023-02-17T09:50:21.860Z,39.43
2023-02-17T09:51:39.252Z,39.73
2023-02-17T09:52:53.519Z,39.50
2023-02-17T09:54:43.399Z,39.64
2023-02-17T09:55:49.476Z,39.04
2023-02-17T09:56:50.133Z,39.26
2023-02-17T09:57:56.312Z,39.37
2023-02-17T09:59:00.549Z,39.22
2023-02-17T10:00:16.281Z,39.30
2023-02-17T10:01:25.975Z,39.47
2023-02-17T10:02:28.385Z,39.08
2023-02-17T10:03:46.758Z,38.62
2023-02-17T10:04:48.777Z,38.08
2023-02-17T10:06:11.384Z,38.53
2023-02-17T10:07:43.990Z,39.03
2023-02-17T10:08:46.837Z,39.24
2023-02-17T10:09:56.524Z,39.10
2023-02-17T10:11:01.807Z,38.88
2023-02-17T10:12:14.256Z,38.90
2023-02-17T10:13:18.123Z,38.45
2023-02-17T10:14:37.223Z,38.55
2023-02-17T10:15:50.065Z,38.80
2023-02-17T10:16:59.930Z,38.78
2023-02-17T10:18:30.655Z,38.76
2023-02-17T10:19:38.905Z,38.36
2023-02-17T10:20:42.276Z,38.45
2023-02-17T10:21:46.704Z,38.74
2023-02-17T10:22:51.172Z,38.43
2023-02-17T10:23:48.468Z,38.03
2023-02-17T10:24:45.447Z,38.41
2023-02-17T10:26:10.224Z,38.20
2023-02-17T10:27:15.979Z,38.21
2023-02-17T10:28:42.341Z,38.24
2023-02-17T10:29:54.335Z,38.30
2023-02-17T10:31:04.542Z,38.05
2023-02-17T10:32:19.844Z,38.64
2023-02-17T10:33:44.632Z,38.06
2023-02-17T10:35:10.371Z,37.61
2023-02-17T10:36:07.461Z,37.31
2023-02-17T10:37:19.231Z,37.38
2023-02-17T10:38:44.518Z,36.90
2023-02-17T10:39:51.542Z,37.15
2023-02-17T10:40:51.644Z,36.94
2023-02-17T10:41:54.968Z,37.77
2023-02-17T10:42:57.527Z,37.35
2023-02-17T10:43:55.795Z,37.31
2023-02-17T10:45:00.573Z,37.72
2023-02-17T10:46:01.193Z,37.75
2023-02-17T10:46:58.397Z,37.52
2023-02-17T10:48:06.895Z,37.67
2023-02-17T10:49:06.319Z,37.85
2023-02-17T10:50:14.175Z,37.41
2023-02-17T10:51:17.228Z,37.70
2023-02-17T10:52:22.225Z,36.89
2023-02-17T10:53:28.450Z,36.89
2023-02-17T10:54:59.898Z,37.01
2023-02-17T10:56:08.678Z,37.09
2023-02-17T10:57:11.153Z,37.28
2023-02-17T10:58:26.777Z,36.68
2023-02-17T10:59:30.452Z,37.65
2023-02-17T11:00:27.683Z,37.77
2023-02-17T11:01:25.344Z,36.95
2023-02-17T11:02:34.613Z,37.02
2023-02-17T11:03:33.126Z,36.66
2023-02-17T11:04:42.325Z,36.86
2023-02-17T11:05:39.295Z,36.22
2023-02-17T11:06:51.654Z,35.96
2023-02-17T11:07:49.018Z,35.72
2023-02-17T11:08:51.881Z,35.28
2023-02-17T11:10:03.124Z,34.83
2023-02-17T11:11:04.588Z,35.16
2023-02-17T11:12:03.005Z,35.43
2023-02-17T11:13:02.712Z,34.77
2023-02-17T11:14:08.184Z,34.89
2023-02-17T11:15:19.650Z,35.65
2023-02-17T11:16:28.139Z,35.00
2023-02-17T11:17:40.980Z,35.03
2023-02-17T11:18:47.520Z,35.15
2023-02-17T11:19:58.357Z,34.89
2023-02-17T11:21:11.761Z,35.31
2023-02-17T11:22:48.512Z,35.53
2023-02-17T11:23:56.433Z,35.04
2023-02-17T11:25:00.145Z,34.87
2023-02-17T11:26:08.393Z,35.17
2023-02-17T11:27:11.289Z,35.37
2023-02-17T11:28:24.875Z,34.78
2023-02-17T11:29:23.419Z,35.14
2023-02-17T11:30:21.732Z,35.31
2023-02-17T11:31:28.843Z,35.01
2023-02-17T11:32:32.751Z,35.65
2023-02-17T11:33:34.154Z,35.92
2023-02-17T11:34:34.871Z,36.34
2023-02-17T11:35:37.531Z,36.23
2023-02-17T11:36:34.335Z,36.48
2023-02-17T11:37:33.001Z,36.10
2023-02-17T11:38:43.138Z,36.43
2023-02-17T11:39:49.292Z,36.20
2023-02-17T11:41:12.394Z,36.79
2023-02-17T11:42:27.084Z,36.63
2023-02-17T11:43:24.686Z,36.56
2023-02-17T11:44:29.320Z,37.01
2023-02-17T11:45:39.690Z,36.77
2023-02-17T11:46:55.174Z,36.62
2023-02-17T11:47:57.632Z,37.13
2023-02-17T11:49:15.667Z,36.74
2023-02-17T11:50:49.874Z,36.41
2023-02-17T11:52:04.620Z,35.64
2023-02-17T11:53:10.062Z,35.87
2023-02-17T11:54:23.052Z,35.63
2023-02-17T11:55:54.133Z,35.25
2023-02-17T11:57:05.542Z,35.53
2023-02-17T11:58:22.484Z,35.46
2023-02-17T11:59:33.785Z,35.81
2023-02-17T12:00:36.704Z,35.97
2023-02-17T12:01:36.559Z,35.47
2023-02-17T12:03:03.630Z,35.83
2023-02-17T12:04:15.750Z,35.45
2023-02-17T12:05:31.944Z,35.81
2023-02-17T12:06:41.948Z,35.37
2023-02-17T12:07:38.664Z,35.79
2023-02-17T12:08:47.730Z,35.60
2023-02-17T12:09:44.507Z,35.40
2023-02-17T12:11:08.469Z,35.58
2023-02-17T12:12:21.976Z,35.51
2023-02-17T12:13:24.729Z,35.47
2023-02-17T12:14:44.494Z,35.85
2023-02-17T12:15:56.391Z,35.58
2023-02-17T12:17:20.582Z,36.18
2023-02-17T12:18:41.221Z,35.48
2023-02-17T12:19:56.791Z,36.00
2023-02-17T12:21:02.552Z,35.53
2023-02-17T12:22:17.562Z,35.81
2023-02-17T12:23:38.752Z,35.95
2023-02-17T12:25:00.286Z,35.77
2023-02-17T12:26:06.890Z,36.34
2023-02-17T12:27:11.260Z,35.85
2023-02-17T12:28:32.311Z,35.79
2023-02-17T12:30:04.671Z,35.70
2023-02-17T12:31:16.774Z,35.59
2023-02-17T12:32:56.189Z,35.81
2023-02-17T12:34:21.857Z,35.96
2023-02-17T12:35:26.644Z,35.56
2023-02-17T12:36:31.477Z,35.69
2023-02-17T12:37:37.200Z,35.56
2023-02-17T12:38:43.976Z,36.08
2023-02-17T12:39:59.608Z,35.71
2023-02-17T12:41:34.622Z,35.69
2023-02-17T12:42:51.439Z,35.88
2023-02-17T12:43:57.684Z,35.66
2023-02-17T12:45:00.155Z,35.35
2023-02-17T12:46:04.068Z,35.15
2023-02-17T12:47:16.925Z,34.97
2023-02-17T12:48:35.497Z,35.15
2023-02-17T12:50:04.524Z,35.33
2023-02-17T12:51:13.300Z,35.49
2023-02-17T12:52:30.865Z,36.05
2023-02-17T12:53:42.993Z,35.80
2023-02-17T12:54:55.459Z,35.31
2023-02-17T12:55:58.572Z,35.66
2023-02-17T12:57:02.903Z,35.82
2023-02-17T12:58:25.621Z,35.47
2023-02-17T12:59:34.714Z,35.29
2023-02-17T13:01:07.210Z,35.64
2023-02-17T13:02:12.514Z,35.11
2023-02-17T13:03:09.639Z,34.58
2023-02-17T13:04:07.208Z,34.72
2023-02-17T13:05:19.569Z,34.65
2023-02-17T13:06:33.448Z,34.88
2023-02-17T13:07:43.656Z,34.53
2023-02-17T13:08:54.144Z,35.10
2023-02-17T13:09:55.590Z,34.86
2023-02-17T13:11:07.373Z,34.64
2023-02-17T13:12:23.909Z,34.80
2023-02-17T13:13:30.284Z,34.42
2023-02-17T13:14:39.853Z,34.55
2023-02-17T13:15:39.143Z,34.74
2023-02-17T13:16:44.157Z,35.14
2023-02-17T13:18:01.254Z,34.51
2023-02-17T13:19:08.510Z,34.75